createdAt,value
2018-05-09T00:01:40.280Z,96192.14
2018-05-09T00:04:06.165Z,96186.01
2018-05-09T00:06:32.042Z,96190.05
2018-05-09T00:08:57.882Z,96185.05
2018-05-09T00:11:23.721Z,96188.28
2018-05-09T00:13:49.569Z,96184.50
2018-05-09T00:16:15.440Z,96178.41
2018-05-09T00:18:41.267Z,96185.20
2018-05-09T00:21:07.112Z,96184.70
2018-05-09T00:23:32.946Z,96188.14
2018-05-09T00:25:58.796Z,96186.48
2018-05-09T00:28:24.636Z,96179.89
2018-05-09T00:30:50.524Z,96189.11
2018-05-09T00:33:16.364Z,96179.30
2018-05-09T00:35:42.229Z,96184.39
2018-05-09T00:38:08.100Z,96183.19
2018-05-09T00:40:33.985Z,96179.31
2018-05-09T00:42:59.836Z,96187.24
2018-05-09T00:45:25.704Z,96185.99
2018-05-09T00:47:51.586Z,96189.63
2018-05-09T00:50:17.426Z,96184.56
2018-05-09T00:52:43.261Z,96185.08
2018-05-09T00:55:09.150Z,96180.09
2018-05-09T00:57:35.039Z,96176.86
2018-05-09T01:00:00.920Z,96172.66
2018-05-09T01:02:26.782Z,96176.02
2018-05-09T01:04:52.637Z,96174.45
2018-05-09T01:07:18.494Z,96172.09
2018-05-09T01:09:44.361Z,96167.97
2018-05-09T01:12:10.201Z,96175.58
2018-05-09T01:14:36.024Z,96176.66
2018-05-09T01:17:01.897Z,96172.58
2018-05-09T01:19:27.772Z,96168.94
2018-05-09T01:21:53.609Z,96167.72
2018-05-09T01:24:19.474Z,96160.77
2018-05-09T01:26:45.368Z,96153.70
2018-05-09T01:29:11.268Z,96157.66
2018-05-09T01:31:37.126Z,96145.86
2018-05-09T01:34:02.980Z,96150.82
2018-05-09T01:36:28.863Z,96146.39
2018-05-09T01:38:54.705Z,96141.91
2018-05-09T01:41:20.632Z,96143.48
2018-05-09T01:43:46.504Z,96140.33
2018-05-09T01:46:12.401Z,96137.13
2018-05-09T01:48:38.237Z,96139.47
2018-05-09T01:51:04.082Z,96135.82
2018-05-09T01:53:29.948Z,96135.72
2018-05-09T01:55:55.818Z,96136.73
2018-05-09T01:58:21.652Z,96134.22
2018-05-09T02:00:47.525Z,96137.46
2018-05-09T02:03:13.374Z,96131.54
2018-05-09T02:05:39.224Z,96124.66
2018-05-09T02:08:05.073Z,96125.16
2018-05-09T02:10:30.909Z,96125.47
2018-05-09T02:12:56.748Z,96127.64
2018-05-09T02:15:22.628Z,96127.88
2018-05-09T02:17:48.488Z,96122.83
2018-05-09T02:20:14.321Z,96124.66
2018-05-09T02:22:40.155Z,96121.59
2018-05-09T02:25:06.002Z,96119.94
2018-05-09T02:27:31.848Z,96131.73
2018-05-09T02:29:57.677Z,96135.55
2018-05-09T02:32:23.509Z,96131.41
2018-05-09T02:34:49.337Z,96132.00
2018-05-09T02:37:15.194Z,96133.94
2018-05-09T02:39:41.093Z,96133.89
2018-05-09T02:42:06.986Z,96134.63
2018-05-09T02:44:32.837Z,96125.82
2018-05-09T02:46:58.730Z,96128.78
2018-05-09T02:49:24.594Z,96130.67
2018-05-09T02:51:50.454Z,96117.93
2018-05-09T02:54:16.378Z,96122.14
2018-05-09T02:56:42.190Z,96119.88
2018-05-09T02:59:08.043Z,96124.04
2018-05-09T03:01:33.929Z,96119.99
2018-05-09T03:04:00.004Z,96125.33
2018-05-09T03:06:25.830Z,96124.18
2018-05-09T03:08:51.699Z,96117.77
2018-05-09T03:11:17.537Z,96115.69
2018-05-09T03:13:43.384Z,96108.28
2018-05-09T03:16:09.267Z,96106.66
2018-05-09T03:18:35.130Z,96108.39
2018-05-09T03:21:01.005Z,96108.49
2018-05-09T03:23:26.832Z,96105.52
2018-05-09T03:25:52.682Z,96109.17
2018-05-09T03:28:18.538Z,96103.84
2018-05-09T03:30:44.369Z,96094.69
2018-05-09T03:33:10.221Z,96100.81
2018-05-09T03:35:36.092Z,96101.80
2018-05-09T03:38:01.945Z,96097.94
2018-05-09T03:40:27.916Z,96097.54
2018-05-09T03:42:53.765Z,96095.34
2018-05-09T03:45:19.623Z,96095.11
2018-05-09T03:47:45.490Z,96094.10
2018-05-09T03:50:11.338Z,96096.93
2018-05-09T03:52:37.173Z,96093.42
2018-05-09T03:55:03.383Z,96103.33
2018-05-09T03:57:29.253Z,96096.41
2018-05-09T03:59:55.117Z,96095.70
2018-05-09T04:02:37.128Z,96099.08
2018-05-09T04:08:18.970Z,96101.83
2018-05-09T04:10:44.827Z,96106.52
2018-05-09T04:13:10.742Z,96108.09
2018-05-09T04:15:36.510Z,96108.38
2018-05-09T04:18:02.398Z,96111.04
2018-05-09T04:20:28.256Z,96104.97
2018-05-09T04:22:54.119Z,96102.81
2018-05-09T04:25:19.988Z,96108.26
2018-05-09T04:27:45.826Z,96107.69
2018-05-09T04:30:11.693Z,96115.66
2018-05-09T04:32:37.570Z,96113.84
2018-05-09T04:35:03.547Z,96107.20
2018-05-09T04:37:29.404Z,96106.70
2018-05-09T04:39:55.296Z,96103.21
2018-05-09T04:42:21.175Z,96098.84
2018-05-09T04:44:47.036Z,96097.94
2018-05-09T04:47:12.889Z,96102.09
2018-05-09T04:49:38.748Z,96108.41
2018-05-09T04:52:04.613Z,96102.29
2018-05-09T04:54:30.561Z,96110.75
2018-05-09T04:56:56.373Z,96108.17
2018-05-09T04:59:22.225Z,96105.13
2018-05-09T05:01:48.104Z,96112.27
2018-05-09T05:04:13.961Z,96105.54
2018-05-09T05:06:39.811Z,96104.25
2018-05-09T05:09:05.650Z,96098.72
2018-05-09T05:11:31.496Z,96108.05
2018-05-09T05:13:57.348Z,96105.18
2018-05-09T05:16:23.178Z,96108.78
2018-05-09T05:18:49.014Z,96093.86
2018-05-09T05:21:14.856Z,96102.28
2018-05-09T05:23:40.698Z,96101.54
2018-05-09T05:26:13.508Z,96108.00
2018-05-09T05:28:39.377Z,96098.58
2018-05-09T05:31:05.224Z,96110.39
2018-05-09T05:33:31.072Z,96104.13
2018-05-09T05:35:56.897Z,96109.13
2018-05-09T05:38:22.809Z,96103.88
2018-05-09T05:40:48.683Z,96106.15
2018-05-09T05:43:14.520Z,96099.52
2018-05-09T05:45:40.369Z,96097.86
2018-05-09T05:48:06.182Z,96089.13
2018-05-09T05:50:32.135Z,96098.60
2018-05-09T05:52:57.920Z,96085.64
2018-05-09T05:55:23.745Z,96087.18
2018-05-09T05:57:49.596Z,96085.09
2018-05-09T06:00:15.468Z,96077.84
2018-05-09T06:02:41.352Z,96081.25
2018-05-09T06:05:07.218Z,96078.03
2018-05-09T06:07:33.076Z,96073.05
2018-05-09T06:09:58.936Z,96079.12
2018-05-09T06:12:24.828Z,96080.33
2018-05-09T06:14:50.685Z,96083.44
2018-05-09T06:17:16.580Z,96090.99
2018-05-09T06:19:42.358Z,96090.39
2018-05-09T06:22:08.210Z,96089.19
2018-05-09T06:24:34.081Z,96102.30
2018-05-09T06:26:59.936Z,96103.80
2018-05-09T06:29:25.810Z,96102.77
2018-05-09T06:31:51.661Z,96105.84
2018-05-09T06:34:17.515Z,96106.56
2018-05-09T06:36:43.350Z,96110.20
2018-05-09T06:39:09.239Z,96114.95
2018-05-09T06:41:35.126Z,96112.11
2018-05-09T06:44:00.941Z,96112.67
2018-05-09T06:46:26.809Z,96114.37
2018-05-09T06:48:52.668Z,96111.03
2018-05-09T06:51:18.511Z,96111.94
2018-05-09T06:53:44.364Z,96113.27
2018-05-09T06:56:10.242Z,96114.06
2018-05-09T06:58:36.085Z,96114.63
2018-05-09T07:01:02.001Z,96111.95
2018-05-09T07:03:27.893Z,96113.84
2018-05-09T07:05:53.769Z,96117.66
2018-05-09T07:08:19.625Z,96115.02
2018-05-09T07:10:45.473Z,96122.77
2018-05-09T07:13:11.332Z,96118.75
2018-05-09T07:15:37.153Z,96121.50
2018-05-09T07:18:03.036Z,96120.81
2018-05-09T07:20:28.877Z,96121.31
2018-05-09T07:22:54.721Z,96121.62
2018-05-09T07:25:20.589Z,96126.23
2018-05-09T07:27:46.451Z,96128.23
2018-05-09T07:30:12.317Z,96128.15
2018-05-09T07:32:38.200Z,96126.24
2018-05-09T07:35:04.101Z,96108.22
2018-05-09T07:37:29.945Z,96122.06
2018-05-09T07:39:55.838Z,96130.19
2018-05-09T07:42:21.684Z,96127.06
2018-05-09T07:44:47.540Z,96120.53
2018-05-09T07:47:13.389Z,96123.59
2018-05-09T07:49:39.246Z,96126.64
2018-05-09T07:52:05.086Z,96127.91
2018-05-09T07:54:30.981Z,96132.30
2018-05-09T07:56:56.838Z,96128.80
2018-05-09T07:59:22.681Z,96126.26
2018-05-09T08:01:48.504Z,96119.22
2018-05-09T08:04:14.358Z,96120.48
2018-05-09T08:06:40.238Z,96125.34
2018-05-09T08:09:06.113Z,96123.27
2018-05-09T08:11:31.976Z,96127.64
2018-05-09T08:13:57.830Z,96119.57
2018-05-09T08:16:23.694Z,96120.28
2018-05-09T08:18:49.577Z,96121.88
2018-05-09T08:21:15.468Z,96118.22
2018-05-09T08:23:41.322Z,96120.56
2018-05-09T08:26:07.198Z,96112.13
2018-05-09T08:28:33.075Z,96121.36
2018-05-09T08:30:58.944Z,96118.89
2018-05-09T08:33:24.822Z,96120.22
2018-05-09T08:35:50.673Z,96115.38
2018-05-09T08:38:16.515Z,96109.36
2018-05-09T08:40:42.364Z,96109.89
2018-05-09T08:43:08.280Z,96114.45
2018-05-09T08:45:34.051Z,96111.38
2018-05-09T08:47:59.920Z,96117.44
2018-05-09T08:50:25.783Z,96120.45
2018-05-09T08:52:51.618Z,96114.80
2018-05-09T08:55:17.505Z,96112.78
2018-05-09T08:57:43.368Z,96110.28
2018-05-09T09:00:09.221Z,96113.11
2018-05-09T09:02:35.079Z,96109.38
2018-05-09T09:05:00.926Z,96116.09
2018-05-09T09:07:26.800Z,96116.11
2018-05-09T09:09:52.649Z,96114.27
2018-05-09T09:12:18.496Z,96109.82
2018-05-09T09:14:44.345Z,96112.20
2018-05-09T09:17:10.200Z,96106.83
2018-05-09T09:19:36.075Z,96102.69
2018-05-09T09:22:01.957Z,96099.52
2018-05-09T09:24:27.813Z,96098.07
2018-05-09T09:26:53.693Z,96104.34
2018-05-09T09:29:19.613Z,96099.56
2018-05-09T09:31:45.409Z,96108.17
2018-05-09T09:34:11.249Z,96101.04
2018-05-09T09:36:37.105Z,96099.00
2018-05-09T09:39:03.000Z,96097.08
2018-05-09T09:41:28.899Z,96098.78
2018-05-09T09:43:54.702Z,96091.41
2018-05-09T09:46:20.523Z,96091.31
2018-05-09T09:48:46.369Z,96091.69
2018-05-09T09:51:12.196Z,96101.02
2018-05-09T09:53:38.057Z,96103.44
2018-05-09T09:56:03.959Z,96102.11
2018-05-09T09:58:29.824Z,96094.03
2018-05-09T10:00:55.645Z,96095.59
2018-05-09T10:03:21.486Z,96096.91
2018-05-09T10:05:47.352Z,96099.45
2018-05-09T10:08:13.191Z,96085.75
2018-05-09T10:10:39.049Z,96087.91
2018-05-09T10:13:04.897Z,96079.61
2018-05-09T10:15:30.747Z,96072.37
2018-05-09T10:17:56.600Z,96081.64
2018-05-09T10:20:22.472Z,96085.34
2018-05-09T10:22:48.309Z,96082.22
2018-05-09T10:25:14.121Z,96088.11
2018-05-09T10:27:39.973Z,96079.62
2018-05-09T10:30:05.860Z,96052.55
2018-05-09T10:32:31.713Z,96080.20
2018-05-09T10:34:57.553Z,96069.95
2018-05-09T10:37:23.410Z,96072.67
2018-05-09T10:39:49.254Z,96064.08
2018-05-09T10:42:15.085Z,96064.27
2018-05-09T10:44:40.906Z,96064.72
2018-05-09T10:47:06.773Z,96073.86
2018-05-09T10:49:32.647Z,96065.95
2018-05-09T10:51:58.498Z,96053.87
2018-05-09T10:54:24.364Z,96058.33
2018-05-09T10:56:50.232Z,96051.63
2018-05-09T10:59:16.118Z,96056.46
2018-05-09T11:01:41.968Z,96054.69
2018-05-09T11:04:07.845Z,96054.73
2018-05-09T11:06:33.745Z,96045.24
2018-05-09T11:08:59.581Z,96042.84
2018-05-09T11:11:25.470Z,96049.12
2018-05-09T11:13:51.281Z,96034.91
2018-05-09T11:16:17.165Z,96042.60
2018-05-09T11:18:43.000Z,96040.05
2018-05-09T11:21:08.868Z,96043.48
2018-05-09T11:23:34.701Z,96033.38
2018-05-09T11:26:00.564Z,96033.73
2018-05-09T11:28:26.449Z,96031.98
2018-05-09T11:30:52.306Z,96030.99
2018-05-09T11:33:18.187Z,96035.22
2018-05-09T11:35:44.060Z,96038.06
2018-05-09T11:38:09.891Z,96034.31
2018-05-09T11:40:35.756Z,96034.03
2018-05-09T11:43:01.611Z,96030.39
2018-05-09T11:45:27.500Z,96029.47
2018-05-09T11:47:53.324Z,96030.31
2018-05-09T11:50:19.175Z,96029.86
2018-05-09T11:52:45.016Z,96019.67
2018-05-09T11:55:10.904Z,96026.07
2018-05-09T11:57:36.726Z,96014.75
2018-05-09T12:00:02.650Z,96016.19
2018-05-09T12:02:28.564Z,96006.91
2018-05-09T12:04:54.355Z,96005.54
2018-05-09T12:07:20.228Z,96004.39
2018-05-09T12:09:46.058Z,96006.98
2018-05-09T12:12:11.921Z,95994.86
2018-05-09T12:14:37.760Z,95986.90
2018-05-09T12:17:03.612Z,95991.16
2018-05-09T12:19:29.500Z,95984.25
2018-05-09T12:21:55.356Z,95985.29
2018-05-09T12:24:21.213Z,95982.88
2018-05-09T12:26:47.053Z,95978.35
2018-05-09T12:29:12.921Z,95969.73
2018-05-09T12:31:38.775Z,95969.55
2018-05-09T12:34:04.628Z,95968.73
2018-05-09T12:36:30.535Z,95972.55
2018-05-09T12:38:56.367Z,95965.38
2018-05-09T12:41:22.221Z,95955.75
2018-05-09T12:43:48.066Z,95958.22
2018-05-09T12:46:13.883Z,95958.19
2018-05-09T12:48:39.855Z,95959.91
2018-05-09T12:51:05.600Z,95960.89
2018-05-09T12:53:31.453Z,95955.03
2018-05-09T12:55:57.300Z,95955.52
2018-05-09T12:58:23.141Z,95946.80
2018-05-09T13:00:48.978Z,95943.94
2018-05-09T13:03:14.873Z,95937.67
2018-05-09T13:05:40.755Z,95936.17
2018-05-09T13:08:06.635Z,95943.14
2018-05-09T13:10:32.502Z,95939.91
2018-05-09T13:12:58.328Z,95935.13
2018-05-09T13:15:24.185Z,95934.97
2018-05-09T13:17:50.054Z,95933.38
2018-05-09T13:20:15.865Z,95920.39
2018-05-09T13:22:41.710Z,95914.16
2018-05-09T13:25:07.557Z,95906.84
2018-05-09T13:27:33.402Z,95898.99
2018-05-09T13:29:59.265Z,95900.69
2018-05-09T13:32:25.141Z,95894.48
2018-05-09T13:34:50.967Z,95894.19
2018-05-09T13:37:16.797Z,95886.37
2018-05-09T13:39:42.640Z,95886.33
2018-05-09T13:42:08.474Z,95871.24
2018-05-09T13:44:34.334Z,95869.13
2018-05-09T13:47:00.196Z,95861.48
2018-05-09T13:49:26.183Z,95858.77
2018-05-09T13:51:52.019Z,95853.44
2018-05-09T13:54:17.900Z,95860.34
2018-05-09T13:56:43.738Z,95853.83
2018-05-09T13:59:09.550Z,95851.76
2018-05-09T14:01:35.428Z,95861.67
2018-05-09T14:04:01.288Z,95869.17
2018-05-09T14:06:27.172Z,95879.23
2018-05-09T14:08:53.005Z,95875.98
2018-05-09T14:11:18.861Z,95868.50
2018-05-09T14:13:44.689Z,95867.34
2018-05-09T14:16:10.527Z,95855.84
2018-05-09T14:18:36.385Z,95856.69
2018-05-09T14:21:02.245Z,95857.97
2018-05-09T14:23:28.146Z,95862.48
2018-05-09T14:25:53.989Z,95863.48
2018-05-09T14:28:19.845Z,95860.92
2018-05-09T14:30:45.678Z,95855.98
2018-05-09T14:33:11.537Z,95851.76
2018-05-09T14:35:37.377Z,95854.03
2018-05-09T14:38:03.296Z,95854.89
2018-05-09T14:40:29.165Z,95854.03
2018-05-09T14:42:55.040Z,95847.48
2018-05-09T14:45:20.974Z,95855.24
2018-05-09T14:47:46.842Z,95846.33
2018-05-09T14:50:12.725Z,95852.58
2018-05-09T14:52:38.631Z,95843.14
2018-05-09T14:55:04.536Z,95833.19
2018-05-09T14:57:30.458Z,95836.73
2018-05-09T14:59:56.358Z,95839.36
2018-05-09T15:02:22.284Z,95841.02
2018-05-09T15:04:48.139Z,95838.09
2018-05-09T15:07:14.030Z,95842.35
2018-05-09T15:09:39.892Z,95831.30
2018-05-09T15:12:05.749Z,95829.96
2018-05-09T15:14:31.628Z,95836.84
2018-05-09T15:16:57.514Z,95843.52
2018-05-09T15:19:23.364Z,95840.77
2018-05-09T15:21:49.659Z,95839.83
2018-05-09T15:24:15.535Z,95844.55
2018-05-09T15:26:41.430Z,95850.62
2018-05-09T15:29:07.296Z,95846.78
2018-05-09T15:31:33.133Z,95859.36
2018-05-09T15:33:59.117Z,95867.68
2018-05-09T15:36:24.982Z,95886.38
2018-05-09T15:38:50.872Z,95879.93
2018-05-09T15:41:16.774Z,95873.36
2018-05-09T15:43:42.728Z,95882.43
2018-05-09T15:46:08.620Z,95907.29
2018-05-09T15:48:34.481Z,95929.35
2018-05-09T15:51:00.356Z,95933.77
2018-05-09T15:53:26.202Z,95933.33
2018-05-09T15:55:52.083Z,95924.48
2018-05-09T15:58:17.969Z,95934.61
2018-05-09T16:00:43.948Z,95928.95
2018-05-09T16:03:09.753Z,95912.84
2018-05-09T16:05:35.590Z,95930.43
2018-05-09T16:08:01.432Z,95928.25
2018-05-09T16:10:27.316Z,95940.11
2018-05-09T16:12:53.173Z,95947.30
2018-05-09T16:15:19.048Z,95945.19
2018-05-09T16:17:44.930Z,95945.68
2018-05-09T16:20:10.847Z,95941.36
2018-05-09T16:22:36.709Z,95947.85
2018-05-09T16:25:02.607Z,95940.59
2018-05-09T16:27:28.461Z,95930.33
2018-05-09T16:29:54.329Z,95923.84
2018-05-09T16:32:20.190Z,95928.63
2018-05-09T16:34:46.029Z,95918.50
2018-05-09T16:37:11.862Z,95923.75
2018-05-09T16:39:37.740Z,95914.21
2018-05-09T16:42:03.608Z,95922.84
2018-05-09T16:44:29.523Z,95916.83
2018-05-09T16:46:55.438Z,95920.17
2018-05-09T16:49:21.301Z,95918.86
2018-05-09T16:51:47.165Z,95906.84
2018-05-09T16:54:13.009Z,95901.88
2018-05-09T16:56:38.902Z,95897.02
2018-05-09T16:59:04.786Z,95901.90
2018-05-09T17:01:30.784Z,95901.56
2018-05-09T17:03:56.611Z,95900.48
2018-05-09T17:06:22.481Z,95897.04
2018-05-09T17:08:48.358Z,95894.78
2018-05-09T17:11:14.220Z,95900.48
2018-05-09T17:13:40.113Z,95897.45
2018-05-09T17:16:05.990Z,95898.73
2018-05-09T17:18:31.852Z,95895.48
2018-05-09T17:20:57.715Z,95898.94
2018-05-09T17:23:23.579Z,95900.19
2018-05-09T17:25:49.461Z,95907.74
2018-05-09T17:28:15.353Z,95907.80
2018-05-09T17:30:41.330Z,95906.84
2018-05-09T17:33:07.115Z,95901.31
2018-05-09T17:35:32.993Z,95910.48
2018-05-09T17:37:58.861Z,95907.72
2018-05-09T17:40:24.773Z,95907.35
2018-05-09T17:42:50.606Z,95908.27
2018-05-09T17:45:16.513Z,95912.80
2018-05-09T17:47:42.363Z,95915.13
2018-05-09T17:50:08.250Z,95916.27
2018-05-09T17:52:34.155Z,95907.30
2018-05-09T17:55:00.039Z,95911.03
2018-05-09T17:57:25.889Z,95908.59
2018-05-09T17:59:51.753Z,95913.25
2018-05-09T18:02:17.650Z,95921.22
2018-05-09T18:04:43.490Z,95920.92
2018-05-09T18:07:09.455Z,95912.25
2018-05-09T18:09:35.332Z,95910.33
2018-05-09T18:12:01.223Z,95909.11
2018-05-09T18:14:27.112Z,95917.39
2018-05-09T18:16:53.017Z,95922.05
2018-05-09T18:19:18.939Z,95923.31
2018-05-09T18:21:44.852Z,95926.60
2018-05-09T18:24:10.719Z,95918.32
2018-05-09T18:26:36.559Z,95929.28
2018-05-09T18:29:02.520Z,95930.77
2018-05-09T18:31:28.386Z,95923.35
2018-05-09T18:34:01.141Z,95917.66
2018-05-09T18:36:33.949Z,95914.84
2018-05-09T18:38:59.808Z,95920.73
2018-05-09T18:41:25.682Z,95921.17
2018-05-09T18:43:51.589Z,95926.58
2018-05-09T18:46:17.520Z,95927.96
2018-05-09T18:48:43.347Z,95918.33
2018-05-09T18:51:09.251Z,95930.08
2018-05-09T18:53:35.152Z,95928.72
2018-05-09T18:56:01.065Z,95925.98
2018-05-09T18:58:26.962Z,95930.06
2018-05-09T19:00:52.873Z,95929.83
2018-05-09T19:03:18.746Z,95926.91
2018-05-09T19:05:44.681Z,95931.67
2018-05-09T19:08:10.554Z,95932.23
2018-05-09T19:10:36.450Z,95928.23
2018-05-09T19:13:02.343Z,95917.61
2018-05-09T19:15:28.247Z,95915.42
2018-05-09T19:17:54.104Z,95915.81
2018-05-09T19:20:19.962Z,95919.97
2018-05-09T19:22:45.861Z,95928.50
2018-05-09T19:25:11.776Z,95932.61
2018-05-09T19:27:38.112Z,95941.78
2018-05-09T19:30:04.177Z,95921.20
2018-05-09T19:32:30.120Z,95946.02
2018-05-09T19:34:55.971Z,95948.51
2018-05-09T19:37:21.865Z,95951.48
2018-05-09T19:39:47.737Z,95950.44
2018-05-09T19:42:13.718Z,95951.66
2018-05-09T19:44:39.620Z,95956.66
2018-05-09T19:47:05.486Z,95958.33
2018-05-09T19:49:31.358Z,95949.00
2018-05-09T19:51:57.257Z,95956.58
2018-05-09T19:54:23.154Z,95957.81
2018-05-09T19:56:49.009Z,95948.47
2018-05-09T19:59:14.863Z,95950.62
2018-05-09T20:01:40.709Z,95949.62
2018-05-09T20:04:06.554Z,95957.80
2018-05-09T20:06:32.460Z,95961.50
2018-05-09T20:08:58.358Z,95959.46
2018-05-09T20:11:24.264Z,95962.93
2018-05-09T20:13:50.135Z,95967.51
2018-05-09T20:16:16.086Z,95962.54
2018-05-09T20:18:41.973Z,95966.97
2018-05-09T20:21:07.945Z,95958.00
2018-05-09T20:23:33.857Z,95953.19
2018-05-09T20:25:59.714Z,95960.25
2018-05-09T20:28:25.588Z,95958.58
2018-05-09T20:30:57.573Z,95958.58
2018-05-09T20:33:23.431Z,95959.52
2018-05-09T20:35:49.300Z,95969.46
2018-05-09T20:38:15.191Z,95968.07
2018-05-09T20:40:41.102Z,95969.25
2018-05-09T20:43:06.934Z,95974.13
2018-05-09T20:45:32.784Z,95978.11
2018-05-09T20:47:58.740Z,95979.90
2018-05-09T20:50:24.621Z,95989.08
2018-05-09T20:52:50.464Z,95989.36
2018-05-09T20:55:26.625Z,95986.19
2018-05-09T20:57:52.475Z,95991.00
2018-05-09T21:00:18.329Z,95993.28
2018-05-09T21:02:44.228Z,95999.47
2018-05-09T21:05:10.103Z,96001.78
2018-05-09T21:07:48.157Z,96011.76
2018-05-09T21:10:14.047Z,96025.99
2018-05-09T21:12:39.908Z,96041.06
2018-05-09T21:15:05.793Z,96046.21
2018-05-09T21:17:31.628Z,96037.43
2018-05-09T21:19:57.482Z,96032.05
2018-05-09T21:22:30.260Z,96041.66
2018-05-09T21:24:56.144Z,96025.61
2018-05-09T21:27:22.038Z,96025.89
2018-05-09T21:29:48.000Z,96029.70
2018-05-09T21:32:13.865Z,96030.89
2018-05-09T21:34:39.743Z,96023.73
2018-05-09T21:37:05.614Z,96018.91
2018-05-09T21:39:31.490Z,96019.15
2018-05-09T21:41:57.344Z,96016.41
2018-05-09T21:44:23.220Z,96009.16
2018-05-09T21:46:49.108Z,96003.08
2018-05-09T21:49:14.960Z,95999.36
2018-05-09T21:51:40.840Z,95996.42
2018-05-09T21:54:06.717Z,95998.02
2018-05-09T21:56:32.581Z,96002.20
2018-05-09T21:58:58.449Z,95999.44
2018-05-09T22:01:24.299Z,95997.63
2018-05-09T22:03:50.172Z,95993.28
2018-05-09T22:06:16.084Z,95990.50
2018-05-09T22:08:41.925Z,95984.45
2018-05-09T22:11:07.767Z,95991.98
2018-05-09T22:13:33.658Z,95989.16
2018-05-09T22:15:59.529Z,95984.19
2018-05-09T22:18:25.411Z,95982.04
2018-05-09T22:20:51.252Z,95973.42
2018-05-09T22:23:17.107Z,95971.97
2018-05-09T22:25:42.952Z,95965.30
2018-05-09T22:28:08.933Z,95965.21
2018-05-09T22:30:34.777Z,95967.91
2018-05-09T22:33:00.653Z,95967.40
2018-05-09T22:35:26.464Z,95961.61
2018-05-09T22:37:52.331Z,95961.89
2018-05-09T22:40:18.225Z,95955.16
2018-05-09T22:42:44.082Z,95953.70
2018-05-09T22:45:09.928Z,95955.02
2018-05-09T22:47:35.845Z,95953.84
2018-05-09T22:50:01.733Z,95945.33
2018-05-09T22:52:27.594Z,95950.00
2018-05-09T22:54:53.463Z,95951.20
2018-05-09T22:57:19.320Z,95946.74
2018-05-09T22:59:45.173Z,95945.47
2018-05-09T23:02:11.031Z,95932.05
2018-05-09T23:04:36.890Z,95934.28
2018-05-09T23:07:02.755Z,95927.95
2018-05-09T23:09:28.663Z,95923.44
2018-05-09T23:11:54.482Z,95920.70
2018-05-09T23:14:20.330Z,95921.91
2018-05-09T23:16:46.193Z,95929.88
2018-05-09T23:19:12.065Z,95919.25
2018-05-09T23:21:37.929Z,95926.19
2018-05-09T23:24:03.792Z,95923.55
2018-05-09T23:26:29.620Z,95919.95
2018-05-09T23:28:55.434Z,95909.13
2018-05-09T23:31:21.313Z,95922.19
2018-05-09T23:33:47.196Z,95917.63
2018-05-09T23:36:13.061Z,95921.01
2018-05-09T23:38:38.926Z,95918.92
2018-05-09T23:41:04.788Z,95923.71
2018-05-09T23:43:30.629Z,95924.71
2018-05-09T23:45:56.470Z,95935.51
2018-05-09T23:48:22.343Z,95934.77
2018-05-09T23:50:48.256Z,95936.00
2018-05-09T23:53:14.139Z,95939.09
2018-05-09T23:55:40.049Z,95932.59
2018-05-09T23:58:05.855Z,95933.09
